createdAt,value
2018-04-20T04:02:23.468Z,99.90
2018-04-20T04:04:52.210Z,99.90
2018-04-20T04:07:21.717Z,99.90
2018-04-20T04:09:50.749Z,99.90
2018-04-20T04:12:19.491Z,99.90
2018-04-20T04:14:48.408Z,98.00
2018-04-20T04:17:29.090Z,94.40
2018-04-20T04:20:08.879Z,94.40
2018-04-20T04:22:48.742Z,94.10
2018-04-20T04:25:28.251Z,95.10
2018-04-20T04:28:08.623Z,96.40
2018-04-20T04:30:37.981Z,96.80
2018-04-20T04:33:08.028Z,96.80
2018-04-20T04:35:36.495Z,96.80
2018-04-20T04:38:04.994Z,97.40
2018-04-20T04:40:34.968Z,98.20
2018-04-20T04:43:03.415Z,98.10
2018-04-20T04:45:32.676Z,98.70
2018-04-20T04:48:01.204Z,98.70
2018-04-20T04:50:29.792Z,97.40
2018-04-20T04:52:58.251Z,96.80
2018-04-20T04:55:27.476Z,97.70
2018-04-20T04:57:56.009Z,97.70
2018-04-20T05:00:24.769Z,97.90
2018-04-20T05:02:53.271Z,98.40
2018-04-20T05:05:21.721Z,98.20
2018-04-20T05:07:50.191Z,98.10
2018-04-20T05:10:19.504Z,99.10
2018-04-20T05:12:47.954Z,99.30
2018-04-20T05:15:16.495Z,98.30
2018-04-20T05:17:45.065Z,99.00
2018-04-20T05:20:13.513Z,98.70
2018-04-20T05:22:42.027Z,97.80
2018-04-20T05:25:10.713Z,96.00
2018-04-20T05:27:39.203Z,96.40
2018-04-20T05:30:08.383Z,97.40
2018-04-20T05:32:36.886Z,96.80
2018-04-20T05:35:05.433Z,96.80
2018-04-20T05:37:34.127Z,91.60
2018-04-20T05:40:02.583Z,93.00
2018-04-20T05:42:31.647Z,90.50
2018-04-20T05:45:00.101Z,90.50
2018-04-20T05:47:28.440Z,83.70
2018-04-20T05:49:56.973Z,82.90
2018-04-20T05:52:26.287Z,76.10
2018-04-20T05:54:54.965Z,76.20
2018-04-20T05:57:23.511Z,78.50
2018-04-20T05:59:52.541Z,74.30
2018-04-20T06:02:21.171Z,74.20
2018-04-20T06:04:49.752Z,72.20
2018-04-20T06:07:20.124Z,68.60
2018-04-20T06:09:48.671Z,64.20
2018-04-20T06:12:18.079Z,59.80
2018-04-20T06:14:46.646Z,59.80
2018-04-20T06:17:14.940Z,53.70
2018-04-20T06:19:43.280Z,57.10
2018-04-20T06:22:12.696Z,55.00
2018-04-20T06:24:40.993Z,54.60
2018-04-20T06:27:09.520Z,58.00
2018-04-20T06:29:38.000Z,51.60
2018-04-20T06:32:06.548Z,47.00
2018-04-20T06:34:36.170Z,48.70
2018-04-20T06:37:05.839Z,46.90
2018-04-20T06:39:34.772Z,46.90
2018-04-20T06:42:05.437Z,46.80
2018-04-20T06:44:34.335Z,46.80
2018-04-20T06:47:02.869Z,49.00
2018-04-20T06:49:31.548Z,49.60
2018-04-20T06:52:00.820Z,51.20
2018-04-20T06:54:30.380Z,55.00
2018-04-20T06:56:59.768Z,47.80
2018-04-20T06:59:28.582Z,47.70
2018-04-20T07:01:57.141Z,44.10
2018-04-20T07:04:25.640Z,45.40
2018-04-20T07:06:55.088Z,48.90
2018-04-20T07:09:23.844Z,49.00
2018-04-20T07:11:52.779Z,49.40
2018-04-20T07:14:21.513Z,43.30
2018-04-20T07:16:51.961Z,39.10
2018-04-20T07:19:20.981Z,39.00
2018-04-20T07:21:49.845Z,38.40
2018-04-20T07:24:19.274Z,37.50
2018-04-20T07:26:47.799Z,37.40
2018-04-20T07:29:16.550Z,36.60
2018-04-20T07:31:46.132Z,36.30
2018-04-20T07:34:14.969Z,35.50
2018-04-20T07:36:43.808Z,37.50
2018-04-20T07:39:13.652Z,34.30
2018-04-20T07:41:42.137Z,34.20
2018-04-20T07:44:11.299Z,36.50
2018-04-20T07:46:40.126Z,33.10
2018-04-20T07:49:08.981Z,34.10
2018-04-20T07:51:38.806Z,31.40
2018-04-20T07:54:07.626Z,31.30
2018-04-20T07:56:36.541Z,32.80
2018-04-20T07:59:05.294Z,32.70
2018-04-20T08:01:34.123Z,31.70
2018-04-20T08:04:02.991Z,32.50
2018-04-20T08:06:31.940Z,32.50
2018-04-20T08:09:00.928Z,30.10
2018-04-20T08:11:31.140Z,29.60
2018-04-20T08:14:00.551Z,30.20
2018-04-20T08:16:30.140Z,32.50
2018-04-20T08:18:59.167Z,32.40
2018-04-20T08:21:29.273Z,27.90
2018-04-20T08:23:58.823Z,33.00
2018-04-20T08:26:27.673Z,32.90
2018-04-20T08:28:57.578Z,29.60
2018-04-20T08:31:27.062Z,29.50
2018-04-20T08:33:55.963Z,28.40
2018-04-20T08:36:24.801Z,29.30
2018-04-20T08:38:53.635Z,29.20
2018-04-20T08:41:22.482Z,29.80
2018-04-20T08:43:51.295Z,29.40
2018-04-20T08:46:20.404Z,28.60
2018-04-20T08:48:49.194Z,29.30
2018-04-20T08:51:17.943Z,28.60
2018-04-20T08:53:46.685Z,31.90
2018-04-20T08:56:15.521Z,28.10
2018-04-20T08:58:44.314Z,26.90
2018-04-20T09:01:13.228Z,28.80
2018-04-20T09:03:42.005Z,25.50
2018-04-20T09:06:10.813Z,25.70
2018-04-20T09:08:39.709Z,28.20
2018-04-20T09:11:08.482Z,27.00
2018-04-20T09:13:37.356Z,26.20
2018-04-20T09:16:06.259Z,26.50
2018-04-20T09:18:35.203Z,24.70
2018-04-20T09:21:03.982Z,25.00
2018-04-20T09:23:32.737Z,25.20
2018-04-20T09:26:01.488Z,24.80
2018-04-20T09:28:31.197Z,26.60
2018-04-20T09:31:01.036Z,26.80
2018-04-20T09:33:29.872Z,26.70
2018-04-20T09:35:58.703Z,26.20
2018-04-20T09:38:28.537Z,26.10
2018-04-20T09:40:57.372Z,25.90
2018-04-20T09:43:26.302Z,27.40
2018-04-20T09:45:56.035Z,26.10
2018-04-20T09:48:24.876Z,26.00
2018-04-20T09:50:54.255Z,27.00
2018-04-20T09:53:23.648Z,26.40
2018-04-20T09:55:52.625Z,27.20
2018-04-20T09:58:21.930Z,26.10
2018-04-20T10:00:51.269Z,26.60
2018-04-20T10:03:20.397Z,26.70
2018-04-20T10:05:50.520Z,27.70
2018-04-20T10:08:20.483Z,26.50
2018-04-20T10:10:49.555Z,26.20
2018-04-20T10:13:18.310Z,27.20
2018-04-20T10:15:47.498Z,25.60
2018-04-20T10:18:16.704Z,25.80
2018-04-20T10:20:46.206Z,24.20
2018-04-20T10:23:15.356Z,25.20
2018-04-20T10:25:44.176Z,29.00
2018-04-20T10:28:12.969Z,25.60
2018-04-20T10:30:41.805Z,27.20
2018-04-20T10:33:11.653Z,27.30
2018-04-20T10:35:41.016Z,27.30
2018-04-20T10:38:10.375Z,29.20
2018-04-20T10:40:39.119Z,29.50
2018-04-20T10:43:08.603Z,27.90
2018-04-20T10:45:37.745Z,28.90
2018-04-20T10:48:06.520Z,26.90
2018-04-20T10:50:35.343Z,28.50
2018-04-20T10:53:04.158Z,25.80
2018-04-20T10:55:32.995Z,24.60
2018-04-20T10:58:02.008Z,25.80
2018-04-20T11:00:30.796Z,26.50
2018-04-20T11:02:59.572Z,29.20
2018-04-20T11:05:28.287Z,28.30
2018-04-20T11:07:57.115Z,24.00
2018-04-20T11:10:26.879Z,25.00
2018-04-20T11:12:56.000Z,25.00
2018-04-20T11:15:24.519Z,27.30
2018-04-20T11:17:52.973Z,27.60
2018-04-20T11:20:21.485Z,27.30
2018-04-20T11:22:50.204Z,26.30
2018-04-20T11:25:18.719Z,26.30
2018-04-20T11:27:47.508Z,27.00
2018-04-20T11:30:16.041Z,26.20
2018-04-20T11:32:45.175Z,25.80
2018-04-20T11:35:16.051Z,28.20
2018-04-20T11:37:45.965Z,28.60
2018-04-20T11:40:15.652Z,27.50
2018-04-20T11:42:44.489Z,27.60
2018-04-20T11:45:13.284Z,28.70
2018-04-20T11:47:42.411Z,27.90
2018-04-20T11:50:11.866Z,25.80
2018-04-20T11:52:41.647Z,25.70
2018-04-20T11:55:10.641Z,25.70
2018-04-20T11:57:39.231Z,27.60
2018-04-20T12:00:08.020Z,27.60
2018-04-20T12:02:37.125Z,26.30
2018-04-20T12:05:06.558Z,25.80
2018-04-20T12:07:36.441Z,27.80
2018-04-20T12:10:05.336Z,27.80
2018-04-20T12:12:34.149Z,26.90
2018-04-20T12:15:03.250Z,29.10
2018-04-20T12:17:31.921Z,25.80
2018-04-20T12:20:01.851Z,29.10
2018-04-20T12:22:31.300Z,29.00
2018-04-20T12:25:00.261Z,28.00
2018-04-20T12:27:28.962Z,28.30
2018-04-20T12:29:57.896Z,28.20
2018-04-20T12:32:26.796Z,27.40
2018-04-20T12:34:56.142Z,27.70
2018-04-20T12:37:26.894Z,31.70
2018-04-20T12:39:56.956Z,28.60
2018-04-20T12:42:26.563Z,28.60
2018-04-20T12:44:55.601Z,28.70
2018-04-20T12:47:24.584Z,28.10
2018-04-20T12:49:54.398Z,27.70
2018-04-20T12:52:24.338Z,27.60
2018-04-20T12:54:53.146Z,29.10
2018-04-20T12:57:25.505Z,30.30
2018-04-20T12:59:55.489Z,29.70
2018-04-20T13:02:24.447Z,29.70
2018-04-20T13:04:53.430Z,30.60
2018-04-20T13:07:22.364Z,28.80
2018-04-20T13:09:52.008Z,32.40
2018-04-20T13:12:21.565Z,32.30
2018-04-20T13:14:50.533Z,29.60
2018-04-20T13:17:20.016Z,29.90
2018-04-20T13:19:49.003Z,28.70
2018-04-20T13:22:18.099Z,30.50
2018-04-20T13:31:20.917Z,33.60
2018-04-20T13:34:06.254Z,34.40
2018-04-20T13:36:38.280Z,34.40
2018-04-20T13:39:26.613Z,32.70
2018-04-20T13:47:40.556Z,35.90
2018-04-20T13:50:39.494Z,36.10
2018-04-20T13:53:09.561Z,36.10
2018-04-20T13:55:40.143Z,36.40
2018-04-20T13:58:10.269Z,32.70
2018-04-20T14:00:38.993Z,32.70
2018-04-20T14:03:08.193Z,33.30
2018-04-20T14:05:41.699Z,32.40
2018-04-20T14:08:10.379Z,33.40
2018-04-20T14:10:40.175Z,34.40
2018-04-20T14:13:08.973Z,34.10
2018-04-20T14:15:37.762Z,37.90
2018-04-20T14:18:07.287Z,32.40
2018-04-20T14:20:36.199Z,33.60
2018-04-20T14:23:06.925Z,31.50
2018-04-20T14:25:35.880Z,33.40
2018-04-20T14:28:04.741Z,32.30
2018-04-20T14:30:34.376Z,33.30
2018-04-20T14:33:03.299Z,33.30
2018-04-20T14:35:32.168Z,30.80
2018-04-20T14:38:01.897Z,29.70
2018-04-20T14:40:30.792Z,29.80
2018-04-20T14:42:59.609Z,32.60
2018-04-20T14:45:29.189Z,32.00
2018-04-20T14:47:58.157Z,32.50
2018-04-20T14:50:27.154Z,32.30
2018-04-20T14:52:55.921Z,33.50
2018-04-20T14:55:25.799Z,37.90
2018-04-20T14:57:54.545Z,31.80
2018-04-20T15:00:23.343Z,33.50
2018-04-20T15:02:52.253Z,33.60
2018-04-20T15:05:22.737Z,32.50
2018-04-20T15:07:52.547Z,33.90
2018-04-20T15:10:21.683Z,31.30
2018-04-20T15:12:51.229Z,33.50
2018-04-20T15:15:20.247Z,35.80
2018-04-20T15:17:49.927Z,32.50
2018-04-20T15:20:20.078Z,31.60
2018-04-20T15:22:52.376Z,31.60
2018-04-20T15:25:21.601Z,31.50
2018-04-20T15:27:51.204Z,32.50
2018-04-20T15:30:21.498Z,33.40
2018-04-20T15:32:50.879Z,30.90
2018-04-20T15:35:21.063Z,29.60
2018-04-20T15:37:51.089Z,32.00
2018-04-20T15:40:22.148Z,30.00
2018-04-20T15:42:53.162Z,29.80
2018-04-20T15:45:23.202Z,29.30
2018-04-20T15:47:52.682Z,29.30
2018-04-20T15:50:21.847Z,30.30
2018-04-20T15:52:51.552Z,33.30
2018-04-20T15:55:20.558Z,31.80
2018-04-20T15:57:49.957Z,32.50
2018-04-20T16:00:21.215Z,33.10
2018-04-20T16:02:51.282Z,33.90
2018-04-20T16:05:20.699Z,33.90
2018-04-20T16:07:50.561Z,34.30
2018-04-20T16:10:20.028Z,34.50
2018-04-20T16:12:49.157Z,34.60
2018-04-20T16:15:18.635Z,34.30
2018-04-20T16:17:47.561Z,35.20
2018-04-20T16:20:16.453Z,35.40
2018-04-20T16:22:45.815Z,34.30
2018-04-20T16:25:14.813Z,35.70
2018-04-20T16:27:43.743Z,34.70
2018-04-20T16:30:12.647Z,35.30
2018-04-20T16:32:41.453Z,33.50
2018-04-20T16:35:10.356Z,33.50
2018-04-20T16:37:39.041Z,35.80
2018-04-20T16:40:08.734Z,39.80
2018-04-20T16:42:37.645Z,39.80
2018-04-20T16:45:06.317Z,39.40
2018-04-20T16:47:35.274Z,41.70
2018-04-20T16:50:04.280Z,43.30
2018-04-20T16:52:33.053Z,43.40
2018-04-20T16:55:01.859Z,44.50
2018-04-20T16:57:30.795Z,45.00
2018-04-20T17:00:01.085Z,45.60
2018-04-20T17:02:30.313Z,45.60
2018-04-20T17:04:59.085Z,47.10
2018-04-20T17:07:27.898Z,46.90
2018-04-20T17:09:56.719Z,47.00
2018-04-20T17:12:26.730Z,50.10
2018-04-20T17:14:56.362Z,50.10
2018-04-20T17:17:28.374Z,53.50
2018-04-20T17:19:57.768Z,53.50
2018-04-20T17:22:27.626Z,55.20
2018-04-20T17:24:56.535Z,55.90
2018-04-20T17:27:26.241Z,61.10
2018-04-20T17:29:55.312Z,61.00
2018-04-20T17:32:24.805Z,61.40
2018-04-20T17:34:53.624Z,63.30
2018-04-20T17:37:23.434Z,65.70
2018-04-20T17:39:52.233Z,65.00
2018-04-20T17:42:21.380Z,65.40
2018-04-20T17:44:50.773Z,65.40
2018-04-20T17:47:19.680Z,66.90
2018-04-20T17:49:48.528Z,69.10
2018-04-20T17:52:17.612Z,71.50
2018-04-20T17:54:46.347Z,71.50
2018-04-20T17:57:14.868Z,70.70
2018-04-20T17:59:43.704Z,71.40
2018-04-20T18:02:12.369Z,72.70
2018-04-20T18:04:41.644Z,73.90
2018-04-20T18:07:11.263Z,73.80
2018-04-20T18:09:40.002Z,74.20
2018-04-20T18:12:08.859Z,75.10
2018-04-20T18:14:38.596Z,76.10
2018-04-20T18:17:07.735Z,76.10
2018-04-20T18:19:36.298Z,76.40
2018-04-20T18:22:05.055Z,77.50
2018-04-20T18:24:33.625Z,78.50
2018-04-20T18:27:02.336Z,79.80
2018-04-20T18:29:30.856Z,80.80
2018-04-20T18:31:59.537Z,81.60
2018-04-20T18:34:28.285Z,83.20
2018-04-20T18:36:56.777Z,83.70
2018-04-20T18:39:26.206Z,83.60
2018-04-20T18:41:54.745Z,83.60
2018-04-20T18:44:23.309Z,84.20
2018-04-20T18:46:51.784Z,83.60
2018-04-20T18:49:20.252Z,82.60
2018-04-20T18:51:48.841Z,83.80
2018-04-20T18:54:17.381Z,85.00
2018-04-20T18:56:45.890Z,85.70
2018-04-20T18:59:14.581Z,87.30
2018-04-20T19:01:43.287Z,87.50
2018-04-20T19:04:12.025Z,87.20
2018-04-20T19:06:40.496Z,85.30
2018-04-20T19:09:09.013Z,86.60
2018-04-20T19:11:37.531Z,87.60
2018-04-20T19:14:06.047Z,87.10
2018-04-20T19:16:34.631Z,87.20
2018-04-20T19:19:03.439Z,88.00
2018-04-20T19:21:32.817Z,87.20
2018-04-20T19:24:02.157Z,88.50
2018-04-20T19:26:30.703Z,88.50
2018-04-20T19:28:59.408Z,87.90
2018-04-20T19:31:27.947Z,87.80
2018-04-20T19:33:56.821Z,88.50
2018-04-20T19:36:25.729Z,89.30
2018-04-20T19:38:54.265Z,89.40
2018-04-20T19:41:22.808Z,90.00
2018-04-20T19:43:51.857Z,90.60
2018-04-20T19:46:20.372Z,90.20
2018-04-20T19:48:49.129Z,90.30
2018-04-20T19:51:18.599Z,90.90
2018-04-20T19:53:48.152Z,91.20
2018-04-20T19:56:16.960Z,91.50
2018-04-20T19:58:45.671Z,91.80
2018-04-20T20:01:14.391Z,92.30
2018-04-20T20:03:42.921Z,92.60
2018-04-20T20:06:11.478Z,93.10
2018-04-20T20:08:41.269Z,93.30
2018-04-20T20:11:09.961Z,93.30
2018-04-20T20:13:38.683Z,93.30
2018-04-20T20:16:08.139Z,93.40
2018-04-20T20:18:36.679Z,93.30
2018-04-20T20:21:05.214Z,93.30
2018-04-20T20:23:33.729Z,93.10
2018-04-20T20:26:02.530Z,92.90
2018-04-20T20:28:31.533Z,92.70
2018-04-20T20:31:00.077Z,93.00
2018-04-20T20:33:28.756Z,93.40
2018-04-20T20:35:57.257Z,93.80
2018-04-20T20:38:25.805Z,94.00
2018-04-20T20:40:55.607Z,93.10
2018-04-20T20:43:24.205Z,93.40
2018-04-20T20:45:53.412Z,93.70
2018-04-20T20:48:22.665Z,94.10
2018-04-20T20:50:51.871Z,94.10
2018-04-20T20:53:20.407Z,94.00
2018-04-20T20:55:48.921Z,94.10
2018-04-20T20:58:18.326Z,94.20
2018-04-20T21:00:46.820Z,94.50
2018-04-20T21:03:15.298Z,94.50
2018-04-20T21:05:43.809Z,94.10
2018-04-20T21:08:13.139Z,94.70
2018-04-20T21:10:41.854Z,94.70
2018-04-20T21:13:10.361Z,95.20
2018-04-20T21:15:38.915Z,95.70
2018-04-20T21:18:07.386Z,95.80
2018-04-20T21:20:35.852Z,96.50
2018-04-20T21:23:05.136Z,95.90
2018-04-20T21:25:34.386Z,95.80
2018-04-20T21:28:02.631Z,95.80
2018-04-20T21:30:31.320Z,95.30
2018-04-20T21:32:59.818Z,95.40
2018-04-20T21:35:28.323Z,96.00
2018-04-20T21:37:56.888Z,95.80
2018-04-20T21:40:25.358Z,95.50
2018-04-20T21:42:53.898Z,95.90
2018-04-20T21:45:22.664Z,95.90
2018-04-20T21:47:51.171Z,96.50
2018-04-20T21:50:19.713Z,96.90
2018-04-20T21:52:48.207Z,96.80
2018-04-20T21:55:16.743Z,96.80
2018-04-20T21:57:46.020Z,97.20
2018-04-20T22:00:14.535Z,97.20
